createdAt,value
2023-02-09T00:01:23.017Z,102780.34
2023-02-09T00:03:50.326Z,102778.66
2023-02-09T00:06:20.167Z,102778.88
2023-02-09T00:08:50.372Z,102770.34
2023-02-09T00:11:46.601Z,102764.22
2023-02-09T00:14:15.396Z,102766.13
2023-02-09T00:16:42.560Z,102761.16
2023-02-09T00:19:10.532Z,102771.66
2023-02-09T00:21:37.794Z,102773.19
2023-02-09T00:24:05.624Z,102773.34
2023-02-09T00:26:33.284Z,102767.31
2023-02-09T00:29:00.386Z,102772.59
2023-02-09T00:31:27.248Z,102776.34
2023-02-09T00:33:54.065Z,102768.88
2023-02-09T00:36:20.808Z,102773.41
2023-02-09T00:38:48.527Z,102775.09
2023-02-09T00:41:17.397Z,102769.28
2023-02-09T00:43:45.323Z,102769.00
2023-02-09T00:46:12.140Z,102772.13
2023-02-09T00:48:38.965Z,102762.53
2023-02-09T00:51:05.760Z,102771.53
2023-02-09T00:53:32.528Z,102772.91
2023-02-09T00:56:00.097Z,102775.03
2023-02-09T00:58:26.945Z,102767.03
2023-02-09T01:00:53.705Z,102763.66
2023-02-09T01:03:20.516Z,102765.78
2023-02-09T01:05:47.322Z,102768.84
2023-02-09T01:08:14.076Z,102765.56
2023-02-09T01:10:41.072Z,102769.47
2023-02-09T01:13:07.871Z,102763.41
2023-02-09T01:15:34.671Z,102760.06
2023-02-09T01:18:01.536Z,102755.81
2023-02-09T01:20:28.350Z,102751.88
2023-02-09T01:22:55.205Z,102754.41
2023-02-09T01:25:22.020Z,102756.34
2023-02-09T01:27:48.769Z,102752.16
2023-02-09T01:30:15.956Z,102754.41
2023-02-09T01:32:43.016Z,102758.97
2023-02-09T01:35:10.700Z,102758.53
2023-02-09T01:37:37.583Z,102749.63
2023-02-09T01:40:05.502Z,102760.34
2023-02-09T01:42:32.752Z,102749.94
2023-02-09T01:45:21.179Z,102764.16
2023-02-09T01:48:09.515Z,102759.06
2023-02-09T01:50:41.358Z,102756.09
2023-02-09T01:53:08.672Z,102757.06
2023-02-09T01:55:40.678Z,102748.16
2023-02-09T01:58:13.327Z,102757.81
2023-02-09T02:00:40.751Z,102762.06
2023-02-09T02:03:21.310Z,102766.81
2023-02-09T02:05:52.020Z,102760.66
2023-02-09T02:08:31.941Z,102762.06
2023-02-09T02:10:58.941Z,102757.59
2023-02-09T02:13:25.849Z,102755.47
2023-02-09T02:16:15.066Z,102750.44
2023-02-09T02:19:01.791Z,102754.75
2023-02-09T02:21:37.665Z,102757.69
2023-02-09T02:24:23.013Z,102745.50
2023-02-09T02:26:50.227Z,102743.16
2023-02-09T02:29:54.537Z,102739.69
2023-02-09T02:32:43.353Z,102732.91
2023-02-09T02:35:16.160Z,102735.63
2023-02-09T02:37:53.499Z,102743.81
2023-02-09T02:40:38.676Z,102754.06
2023-02-09T02:43:20.895Z,102744.03
2023-02-09T02:46:00.762Z,102741.97
2023-02-09T02:48:43.678Z,102743.50
2023-02-09T02:51:17.799Z,102741.44
2023-02-09T02:53:51.045Z,102747.34
2023-02-09T02:56:24.254Z,102750.94
2023-02-09T02:58:54.497Z,102737.31
2023-02-09T03:01:25.431Z,102740.97
2023-02-09T03:03:53.670Z,102743.63
2023-02-09T03:06:20.501Z,102740.88
2023-02-09T03:08:54.460Z,102738.50
2023-02-09T03:11:24.226Z,102739.97
2023-02-09T03:14:12.004Z,102744.19
2023-02-09T03:16:46.110Z,102726.88
2023-02-09T03:19:54.422Z,102734.47
2023-02-09T03:22:34.901Z,102733.13
2023-02-09T03:25:07.595Z,102732.91
2023-02-09T03:27:48.090Z,102744.00
2023-02-09T03:30:17.793Z,102752.94
2023-02-09T03:32:47.080Z,102752.66
2023-02-09T03:35:20.789Z,102765.28
2023-02-09T03:37:47.616Z,102764.88
2023-02-09T03:40:14.394Z,102769.44
2023-02-09T03:42:41.326Z,102768.31
2023-02-09T03:45:08.400Z,102764.19
2023-02-09T03:47:35.225Z,102760.34
2023-02-09T03:50:02.178Z,102755.47
2023-02-09T03:52:31.022Z,102756.03
2023-02-09T03:54:57.772Z,102759.88
2023-02-09T03:57:24.680Z,102759.00
2023-02-09T03:59:54.358Z,102754.16
2023-02-09T04:02:21.288Z,102753.84
2023-02-09T04:04:48.088Z,102739.31
2023-02-09T04:07:15.349Z,102744.69
2023-02-09T04:09:42.092Z,102752.09
2023-02-09T04:12:08.822Z,102756.75
2023-02-09T04:14:35.577Z,102750.94
2023-02-09T04:17:02.547Z,102750.34
2023-02-09T04:19:29.369Z,102741.97
2023-02-09T04:21:56.150Z,102735.75
2023-02-09T04:24:29.049Z,102745.75
2023-02-09T04:26:55.907Z,102741.91
2023-02-09T04:29:22.687Z,102742.66
2023-02-09T04:31:49.498Z,102747.81
2023-02-09T04:34:16.933Z,102743.09
2023-02-09T04:36:44.000Z,102737.47
2023-02-09T04:39:10.734Z,102738.72
2023-02-09T04:41:37.539Z,102734.66
2023-02-09T04:44:04.450Z,102742.91
2023-02-09T04:46:31.192Z,102743.44
2023-02-09T04:48:57.959Z,102748.97
2023-02-09T04:51:24.934Z,102744.31
2023-02-09T04:53:51.606Z,102744.09
2023-02-09T04:56:18.478Z,102746.41
2023-02-09T04:59:03.929Z,102751.28
2023-02-09T05:01:31.943Z,102760.63
2023-02-09T05:03:58.839Z,102754.91
2023-02-09T05:06:25.663Z,102745.69
2023-02-09T05:08:52.454Z,102753.63
2023-02-09T05:11:19.194Z,102755.97
2023-02-09T05:13:45.917Z,102756.06
2023-02-09T05:16:17.441Z,102760.31
2023-02-09T05:18:44.871Z,102755.09
2023-02-09T05:21:14.160Z,102765.28
2023-02-09T05:23:41.597Z,102764.31
2023-02-09T05:26:08.811Z,102778.63
2023-02-09T05:28:35.610Z,102774.69
2023-02-09T05:31:02.508Z,102780.84
2023-02-09T05:33:29.350Z,102779.56
2023-02-09T05:35:56.199Z,102786.75
2023-02-09T05:38:23.670Z,102785.94
2023-02-09T05:40:50.925Z,102792.16
2023-02-09T05:43:17.903Z,102799.94
2023-02-09T05:45:45.671Z,102797.47
2023-02-09T05:48:12.415Z,102804.56
2023-02-09T05:50:39.218Z,102807.22
2023-02-09T05:53:09.241Z,102809.44
2023-02-09T05:55:36.506Z,102815.69
2023-02-09T05:58:03.344Z,102814.34
2023-02-09T06:00:30.770Z,102815.50
2023-02-09T06:02:58.837Z,102801.63
2023-02-09T06:05:25.990Z,102810.72
2023-02-09T06:07:52.857Z,102799.38
2023-02-09T06:10:19.807Z,102787.09
2023-02-09T06:12:46.665Z,102798.53
2023-02-09T06:15:16.434Z,102808.06
2023-02-09T06:17:45.034Z,102813.66
2023-02-09T06:20:12.123Z,102818.97
2023-02-09T06:22:38.906Z,102817.16
2023-02-09T06:25:06.027Z,102811.88
2023-02-09T06:27:32.810Z,102816.44
2023-02-09T06:29:59.605Z,102821.75
2023-02-09T06:32:26.517Z,102828.94
2023-02-09T06:34:53.329Z,102816.97
2023-02-09T06:37:20.106Z,102834.88
2023-02-09T06:39:46.901Z,102836.97
2023-02-09T06:42:13.822Z,102841.75
2023-02-09T06:44:40.697Z,102834.75
2023-02-09T06:47:08.503Z,102828.63
2023-02-09T06:49:35.239Z,102835.28
2023-02-09T06:52:02.381Z,102836.66
2023-02-09T06:54:29.407Z,102834.44
2023-02-09T06:56:56.279Z,102844.06
2023-02-09T06:59:23.418Z,102841.03
2023-02-09T07:01:54.409Z,102837.59
2023-02-09T07:04:23.983Z,102852.53
2023-02-09T07:06:50.787Z,102861.25
2023-02-09T07:09:17.574Z,102875.13
2023-02-09T07:11:44.292Z,102867.72
2023-02-09T07:14:13.318Z,102888.97
2023-02-09T07:16:40.074Z,102882.63
2023-02-09T07:19:06.834Z,102891.09
2023-02-09T07:21:33.701Z,102893.00
2023-02-09T07:24:00.441Z,102902.56
2023-02-09T07:26:27.204Z,102909.81
2023-02-09T07:28:53.932Z,102909.22
2023-02-09T07:31:20.791Z,102918.34
2023-02-09T07:33:47.651Z,102919.09
2023-02-09T07:36:16.371Z,102919.38
2023-02-09T07:38:43.504Z,102916.72
2023-02-09T07:41:20.032Z,102929.66
2023-02-09T07:43:47.241Z,102928.41
2023-02-09T07:46:17.331Z,102916.00
2023-02-09T07:48:44.271Z,102927.31
2023-02-09T07:51:25.531Z,102931.25
2023-02-09T07:53:53.498Z,102937.94
2023-02-09T07:56:20.635Z,102940.44
2023-02-09T07:58:47.550Z,102936.75
2023-02-09T08:01:15.191Z,102943.16
2023-02-09T08:03:45.704Z,102941.56
2023-02-09T08:06:19.734Z,102938.63
2023-02-09T08:08:51.549Z,102946.09
2023-02-09T08:11:31.238Z,102937.63
2023-02-09T08:14:01.620Z,102945.00
2023-02-09T08:16:31.100Z,102942.38
2023-02-09T08:19:02.182Z,102945.91
2023-02-09T08:21:32.990Z,102942.44
2023-02-09T08:24:00.243Z,102953.44
2023-02-09T08:26:27.133Z,102958.56
2023-02-09T08:28:54.591Z,102949.66
2023-02-09T08:31:22.115Z,102964.84
2023-02-09T08:33:50.631Z,102963.78
2023-02-09T08:36:19.342Z,102967.63
2023-02-09T08:38:46.128Z,102965.75
2023-02-09T08:41:14.796Z,102966.84
2023-02-09T08:43:42.020Z,102973.16
2023-02-09T08:46:11.697Z,102973.47
2023-02-09T08:48:40.631Z,102973.78
2023-02-09T08:51:08.950Z,102975.94
2023-02-09T08:53:35.750Z,102977.41
2023-02-09T08:56:02.586Z,102983.06
2023-02-09T08:58:30.279Z,102990.47
2023-02-09T09:00:57.339Z,102996.59
2023-02-09T09:03:29.970Z,102986.59
2023-02-09T09:06:07.458Z,102989.00
2023-02-09T09:08:36.227Z,102992.19
2023-02-09T09:11:03.968Z,102996.06
2023-02-09T09:13:30.727Z,102995.50
2023-02-09T09:15:57.719Z,102989.00
2023-02-09T09:18:25.476Z,102992.47
2023-02-09T09:20:53.135Z,102995.28
2023-02-09T09:23:21.289Z,102994.31
2023-02-09T09:25:48.497Z,102994.69
2023-02-09T09:28:15.980Z,102996.97
2023-02-09T09:30:43.130Z,102998.41
2023-02-09T09:33:09.980Z,103004.72
2023-02-09T09:35:36.815Z,103010.19
2023-02-09T09:38:03.822Z,103009.06
2023-02-09T09:40:35.743Z,103024.06
2023-02-09T09:43:06.103Z,103024.31
2023-02-09T09:45:38.192Z,103028.66
2023-02-09T09:48:07.393Z,103041.00
2023-02-09T09:50:41.359Z,103028.03
2023-02-09T09:53:33.567Z,103039.22
2023-02-09T09:56:06.362Z,103039.91
2023-02-09T09:58:34.650Z,103039.06
2023-02-09T10:01:01.626Z,103037.00
2023-02-09T10:03:28.461Z,103042.34
2023-02-09T10:06:00.645Z,103040.78
2023-02-09T10:08:37.087Z,103049.94
2023-02-09T10:11:11.146Z,103049.69
2023-02-09T10:13:44.734Z,103047.13
2023-02-09T10:16:17.297Z,103051.44
2023-02-09T10:18:44.538Z,103048.66
2023-02-09T10:21:15.188Z,103051.81
2023-02-09T10:23:45.275Z,103058.16
2023-02-09T10:26:11.968Z,103062.03
2023-02-09T10:28:51.810Z,103058.88
2023-02-09T10:31:27.629Z,103063.59
2023-02-09T10:34:03.337Z,103063.25
2023-02-09T10:36:39.706Z,103059.53
2023-02-09T10:39:31.456Z,103060.59
2023-02-09T10:42:24.503Z,103056.97
2023-02-09T10:44:57.180Z,103057.34
2023-02-09T10:47:28.391Z,103052.84
2023-02-09T10:50:05.801Z,103053.91
2023-02-09T10:52:35.924Z,103058.41
2023-02-09T10:55:14.989Z,103053.91
2023-02-09T10:57:41.965Z,103057.72
2023-02-09T11:00:17.782Z,103055.50
2023-02-09T11:02:56.698Z,103051.09
2023-02-09T11:05:23.515Z,103053.16
2023-02-09T11:08:02.470Z,103060.78
2023-02-09T11:10:35.129Z,103056.38
2023-02-09T11:13:02.459Z,103051.41
2023-02-09T11:15:45.142Z,103049.66
2023-02-09T11:18:35.372Z,103045.59
2023-02-09T11:21:08.496Z,103053.31
2023-02-09T11:23:44.576Z,103046.59
2023-02-09T11:26:31.532Z,103039.91
2023-02-09T11:29:46.357Z,103053.81
2023-02-09T11:32:38.332Z,103040.56
2023-02-09T11:35:18.868Z,103040.84
2023-02-09T11:38:03.967Z,103041.88
2023-02-09T11:40:46.660Z,103044.38
2023-02-09T11:43:21.821Z,103043.84
2023-02-09T11:45:55.360Z,103046.28
2023-02-09T11:48:29.188Z,103042.19
2023-02-09T11:51:16.677Z,103035.66
2023-02-09T11:53:59.923Z,103032.50
2023-02-09T11:56:28.538Z,103026.75
2023-02-09T11:58:58.260Z,103028.53
2023-02-09T12:01:46.822Z,103025.88
2023-02-09T12:04:25.296Z,103033.00
2023-02-09T12:06:59.255Z,103021.91
2023-02-09T12:09:42.094Z,103019.28
2023-02-09T12:12:28.911Z,103029.63
2023-02-09T12:15:07.969Z,103023.13
2023-02-09T12:17:46.685Z,103013.91
2023-02-09T12:20:47.238Z,103011.56
2023-02-09T12:23:36.632Z,103007.19
2023-02-09T12:26:34.295Z,103009.78
2023-02-09T12:29:37.972Z,103004.53
2023-02-09T12:32:04.756Z,102981.13
2023-02-09T12:34:43.068Z,102990.13
2023-02-09T12:37:12.929Z,102987.47
2023-02-09T12:40:15.024Z,102987.63
2023-02-09T12:43:02.918Z,102977.75
2023-02-09T12:45:32.744Z,102972.94
2023-02-09T12:48:11.514Z,102980.50
2023-02-09T12:50:44.113Z,102972.94
2023-02-09T12:53:23.101Z,102970.09
2023-02-09T12:56:11.105Z,102967.66
2023-02-09T12:58:45.346Z,102968.63
2023-02-09T13:01:14.560Z,102972.97
2023-02-09T13:03:45.323Z,102977.22
2023-02-09T13:06:35.379Z,102974.03
2023-02-09T13:09:07.616Z,102976.22
2023-02-09T13:11:46.230Z,102977.63
2023-02-09T13:14:16.387Z,102970.34
2023-02-09T13:17:05.758Z,102966.22
2023-02-09T13:19:53.711Z,102967.97
2023-02-09T13:22:44.336Z,102956.38
2023-02-09T13:25:20.242Z,102954.47
2023-02-09T13:27:49.832Z,102959.25
2023-02-09T13:30:33.685Z,102953.38
2023-02-09T13:33:06.372Z,102959.78
2023-02-09T13:35:39.694Z,102952.31
2023-02-09T13:38:17.753Z,102966.03
2023-02-09T13:40:48.253Z,102964.38
2023-02-09T13:43:40.375Z,102958.56
2023-02-09T13:46:26.046Z,102955.22
2023-02-09T13:48:52.991Z,102965.19
2023-02-09T13:51:20.833Z,102959.34
2023-02-09T13:54:01.349Z,102965.19
2023-02-09T13:56:30.862Z,102956.66
2023-02-09T13:58:58.544Z,102955.56
2023-02-09T14:01:37.039Z,102958.63
2023-02-09T14:04:11.331Z,102958.44
2023-02-09T14:06:44.742Z,102958.88
2023-02-09T14:09:20.547Z,102960.00
2023-02-09T14:11:52.562Z,102966.56
2023-02-09T14:14:19.237Z,102968.00
2023-02-09T14:16:53.470Z,102969.72
2023-02-09T14:19:31.184Z,102973.38
2023-02-09T14:21:58.033Z,102984.66
2023-02-09T14:24:26.860Z,102980.81
2023-02-09T14:27:00.001Z,102992.19
2023-02-09T14:29:30.121Z,102993.81
2023-02-09T14:31:58.301Z,102997.81
2023-02-09T14:34:36.580Z,102992.00
2023-02-09T14:37:23.528Z,102992.50
2023-02-09T14:40:07.324Z,102998.69
2023-02-09T14:42:39.590Z,102996.16
2023-02-09T14:45:15.224Z,103014.50
2023-02-09T14:47:44.483Z,103014.78
2023-02-09T14:50:13.295Z,103016.31
2023-02-09T14:52:46.755Z,103012.56
2023-02-09T14:55:28.575Z,103016.81
2023-02-09T14:57:55.538Z,103016.09
2023-02-09T15:00:25.043Z,103016.56
2023-02-09T15:02:53.066Z,103027.31
2023-02-09T15:05:21.869Z,103015.94
2023-02-09T15:07:55.887Z,103018.22
2023-02-09T15:10:28.318Z,103019.00
2023-02-09T15:12:56.387Z,103031.91
2023-02-09T15:15:25.385Z,103032.28
2023-02-09T15:17:54.186Z,103022.81
2023-02-09T15:20:25.779Z,103022.44
2023-02-09T15:22:54.946Z,103026.06
2023-02-09T15:25:22.627Z,103029.59
2023-02-09T15:27:52.606Z,103039.53
2023-02-09T15:30:32.472Z,103041.00
2023-02-09T15:32:59.431Z,103039.41
2023-02-09T15:35:28.819Z,103044.75
2023-02-09T15:38:00.878Z,103037.84
2023-02-09T15:40:59.914Z,103041.00
2023-02-09T15:43:45.844Z,103039.44
2023-02-09T15:46:32.037Z,103048.50
2023-02-09T15:48:59.495Z,103046.72
2023-02-09T15:51:31.245Z,103041.84
2023-02-09T15:54:05.494Z,103047.53
2023-02-09T15:56:32.553Z,103049.13
2023-02-09T15:59:05.495Z,103046.94
2023-02-09T16:01:37.013Z,103050.81
2023-02-09T16:04:13.890Z,103053.59
2023-02-09T16:06:48.768Z,103052.88
2023-02-09T16:09:20.415Z,103061.09
2023-02-09T16:11:48.414Z,103056.50
2023-02-09T16:14:17.764Z,103054.41
2023-02-09T16:16:45.843Z,103059.03
2023-02-09T16:19:13.516Z,103062.19
2023-02-09T16:21:43.538Z,103058.09
2023-02-09T16:24:21.429Z,103065.94
2023-02-09T16:26:48.429Z,103065.31
2023-02-09T16:29:15.830Z,103073.31
2023-02-09T16:31:42.716Z,103071.16
2023-02-09T16:34:15.181Z,103072.19
2023-02-09T16:36:43.003Z,103069.53
2023-02-09T16:39:18.427Z,103074.97
2023-02-09T16:41:53.557Z,103082.72
2023-02-09T16:44:24.293Z,103085.28
2023-02-09T16:46:53.864Z,103079.69
2023-02-09T16:49:38.244Z,103077.50
2023-02-09T16:52:19.479Z,103088.41
2023-02-09T16:54:50.316Z,103093.97
2023-02-09T16:57:20.410Z,103085.94
2023-02-09T16:59:47.263Z,103102.16
2023-02-09T17:02:29.912Z,103091.28
2023-02-09T17:04:58.030Z,103086.69
2023-02-09T17:07:30.287Z,103089.09
2023-02-09T17:09:57.631Z,103096.13
2023-02-09T17:12:24.667Z,103107.59
2023-02-09T17:14:51.458Z,103106.41
2023-02-09T17:17:20.370Z,103110.63
2023-02-09T17:19:49.700Z,103110.41
2023-02-09T17:22:17.365Z,103114.75
2023-02-09T17:24:47.112Z,103113.03
2023-02-09T17:27:14.064Z,103132.03
2023-02-09T17:29:40.872Z,103127.53
2023-02-09T17:32:11.263Z,103126.19
2023-02-09T17:34:38.116Z,103136.94
2023-02-09T17:37:04.837Z,103129.69
2023-02-09T17:39:31.569Z,103127.91
2023-02-09T17:41:59.647Z,103135.00
2023-02-09T17:44:43.723Z,103135.00
2023-02-09T17:47:17.406Z,103146.63
2023-02-09T17:49:44.100Z,103149.84
2023-02-09T17:52:18.502Z,103148.66
2023-02-09T17:54:45.635Z,103152.78
2023-02-09T17:57:17.014Z,103156.63
2023-02-09T17:59:45.463Z,103150.38
2023-02-09T18:02:18.116Z,103157.16
2023-02-09T18:04:45.028Z,103155.09
2023-02-09T18:07:12.783Z,103161.16
2023-02-09T18:09:39.570Z,103155.94
2023-02-09T18:12:19.552Z,103166.22
2023-02-09T18:14:46.440Z,103165.88
2023-02-09T18:17:13.247Z,103164.06
2023-02-09T18:19:40.170Z,103173.97
2023-02-09T18:22:07.120Z,103177.38
2023-02-09T18:24:35.148Z,103190.44
2023-02-09T18:27:02.589Z,103193.66
2023-02-09T18:29:30.133Z,103193.53
2023-02-09T18:31:58.065Z,103203.09
2023-02-09T18:34:25.579Z,103202.78
2023-02-09T18:36:52.346Z,103199.50
2023-02-09T18:39:19.192Z,103202.78
2023-02-09T18:41:48.490Z,103209.41
2023-02-09T18:44:15.365Z,103213.16
2023-02-09T18:46:43.173Z,103215.44
2023-02-09T18:49:12.739Z,103225.75
2023-02-09T18:51:39.450Z,103220.22
2023-02-09T18:54:06.306Z,103222.88
2023-02-09T18:56:33.259Z,103230.59
2023-02-09T18:58:59.944Z,103232.31
2023-02-09T19:01:26.718Z,103233.41
2023-02-09T19:03:53.820Z,103239.53
2023-02-09T19:06:22.007Z,103243.41
2023-02-09T19:08:50.418Z,103247.78
2023-02-09T19:11:19.644Z,103252.13
2023-02-09T19:14:06.720Z,103256.38
2023-02-09T19:16:35.102Z,103262.41
2023-02-09T19:19:01.834Z,103259.63
2023-02-09T19:21:29.083Z,103260.47
2023-02-09T19:23:55.990Z,103265.91
2023-02-09T19:26:23.010Z,103268.56
2023-02-09T19:28:49.858Z,103256.59
2023-02-09T19:31:17.984Z,103252.84
2023-02-09T19:33:44.833Z,103258.16
2023-02-09T19:36:11.908Z,103257.34
2023-02-09T19:38:38.681Z,103263.63
2023-02-09T19:41:12.110Z,103267.34
2023-02-09T19:43:40.742Z,103267.41
2023-02-09T19:46:10.277Z,103272.28
2023-02-09T19:48:46.918Z,103271.81
2023-02-09T19:51:13.909Z,103271.81
2023-02-09T19:53:40.706Z,103274.66
2023-02-09T19:56:07.581Z,103270.28
2023-02-09T19:58:37.286Z,103281.56
2023-02-09T20:01:09.255Z,103276.78
2023-02-09T20:03:37.043Z,103290.84
2023-02-09T20:06:12.486Z,103294.56
2023-02-09T20:08:39.884Z,103292.91
2023-02-09T20:11:12.729Z,103290.84
2023-02-09T20:13:39.603Z,103299.88
2023-02-09T20:16:09.099Z,103292.97
2023-02-09T20:18:36.356Z,103298.28
2023-02-09T20:21:07.215Z,103298.00
2023-02-09T20:23:34.591Z,103308.78
2023-02-09T20:26:01.471Z,103307.09
2023-02-09T20:28:28.263Z,103314.09
2023-02-09T20:30:55.035Z,103320.13
2023-02-09T20:33:21.773Z,103317.69
2023-02-09T20:35:48.557Z,103321.00
2023-02-09T20:38:15.395Z,103315.69
2023-02-09T20:40:43.352Z,103325.69
2023-02-09T20:43:31.029Z,103323.97
2023-02-09T20:46:16.730Z,103331.63
2023-02-09T20:48:43.582Z,103332.03
2023-02-09T20:51:10.348Z,103333.94
2023-02-09T20:53:37.081Z,103331.31
2023-02-09T20:56:04.034Z,103329.28
2023-02-09T20:58:30.780Z,103331.09
2023-02-09T21:00:57.522Z,103328.88
2023-02-09T21:03:24.401Z,103334.81
2023-02-09T21:05:51.082Z,103336.31
2023-02-09T21:08:17.849Z,103341.94
2023-02-09T21:10:44.698Z,103338.84
2023-02-09T21:13:12.072Z,103342.47
2023-02-09T21:15:41.054Z,103339.69
2023-02-09T21:18:08.263Z,103341.63
2023-02-09T21:20:35.356Z,103334.94
2023-02-09T21:23:02.205Z,103342.25
2023-02-09T21:25:29.033Z,103344.16
2023-02-09T21:27:56.081Z,103344.38
2023-02-09T21:30:22.894Z,103340.34
2023-02-09T21:32:49.707Z,103350.13
2023-02-09T21:35:19.370Z,103357.00
2023-02-09T21:37:46.172Z,103353.41
2023-02-09T21:40:13.855Z,103354.25
2023-02-09T21:42:41.081Z,103352.03
2023-02-09T21:45:08.811Z,103352.84
2023-02-09T21:47:38.763Z,103351.22
2023-02-09T21:50:11.462Z,103351.81
2023-02-09T21:52:38.386Z,103353.31
2023-02-09T21:55:05.943Z,103340.88
2023-02-09T21:57:32.787Z,103345.94
2023-02-09T22:00:04.464Z,103343.13
2023-02-09T22:02:31.821Z,103347.06
2023-02-09T22:04:58.540Z,103345.44
2023-02-09T22:07:25.572Z,103345.13
2023-02-09T22:09:52.446Z,103347.34
2023-02-09T22:12:19.319Z,103354.56
2023-02-09T22:14:46.508Z,103350.97
2023-02-09T22:17:13.247Z,103352.22
2023-02-09T22:19:40.098Z,103342.25
2023-02-09T22:22:07.320Z,103344.75
2023-02-09T22:24:34.896Z,103351.69
2023-02-09T22:27:03.325Z,103353.63
2023-02-09T22:29:30.509Z,103353.84
2023-02-09T22:31:58.272Z,103350.97
2023-02-09T22:34:25.223Z,103356.19
2023-02-09T22:36:53.224Z,103350.53
2023-02-09T22:39:21.214Z,103350.59
2023-02-09T22:41:48.469Z,103358.28
2023-02-09T22:44:16.635Z,103359.44
2023-02-09T22:46:45.113Z,103361.88
2023-02-09T22:49:18.268Z,103365.25
2023-02-09T22:51:46.693Z,103365.81
2023-02-09T22:54:19.018Z,103369.00
2023-02-09T22:56:45.862Z,103372.59
2023-02-09T22:59:14.694Z,103367.84
2023-02-09T23:01:41.625Z,103367.19
2023-02-09T23:04:08.584Z,103370.81
2023-02-09T23:06:35.547Z,103369.94
2023-02-09T23:09:05.218Z,103374.28
2023-02-09T23:11:32.189Z,103366.75
2023-02-09T23:14:09.150Z,103372.13
2023-02-09T23:16:37.684Z,103369.06
2023-02-09T23:19:07.068Z,103372.06
2023-02-09T23:21:38.285Z,103367.75
2023-02-09T23:24:05.689Z,103375.50
2023-02-09T23:26:32.683Z,103370.03
2023-02-09T23:29:01.625Z,103377.78
2023-02-09T23:31:28.665Z,103382.63
2023-02-09T23:33:55.726Z,103372.94
2023-02-09T23:36:25.541Z,103384.97
2023-02-09T23:38:54.287Z,103387.72
2023-02-09T23:41:21.468Z,103397.69
2023-02-09T23:43:48.691Z,103394.16
2023-02-09T23:46:21.910Z,103399.28
2023-02-09T23:48:49.491Z,103397.03
2023-02-09T23:51:28.364Z,103389.94
2023-02-09T23:53:57.102Z,103384.63
2023-02-09T23:56:24.607Z,103384.25
2023-02-09T23:58:52.545Z,103391.81
